Sherwood Park, Canada
Current Conditions -  °F | °C
As of 8:00 AM on Wednesday 26 Nov 2014 (Local Time) from CYXD Reporting Station
Overcast Overcast  
Wind Chill:   Ceiling: 1800
Heat Index: 19°   Visibility: 9mi
Dew Point: 14°   Wind: 8mph
Humidity: 80%   Direction: 180°S
Pressure: 30.17"   Gusts: NA
Location:  53.52°N, 113.32°W
Report Text: CYXD 261500Z AUTO 18007KT 9SM FEW015 OVC018 M07/M10 A3017 RMKSLP263
Loading
Personal Weather Stations






























Interactive Weather Map New forecast layout! Learn more

10-Day Weather Forecast

Advertisements
Track Severe Weather on mobile